createdAt,value
2018-07-07T00:01:36.023Z,24.88
2018-07-07T00:04:06.738Z,25.29
2018-07-07T00:06:37.817Z,25.41
2018-07-07T00:09:08.613Z,25.54
2018-07-07T00:11:39.418Z,25.71
2018-07-07T00:14:10.077Z,25.82
2018-07-07T00:16:40.864Z,25.79
2018-07-07T00:19:11.577Z,25.89
2018-07-07T00:21:42.455Z,25.87
2018-07-07T00:24:13.130Z,25.83
2018-07-07T00:26:44.006Z,25.80
2018-07-07T00:29:14.661Z,25.71
2018-07-07T00:31:45.465Z,25.86
2018-07-07T00:34:16.118Z,25.94
2018-07-07T00:36:46.886Z,25.92
2018-07-07T00:39:17.037Z,25.97
2018-07-07T00:41:47.980Z,26.03
2018-07-07T00:44:18.697Z,26.01
2018-07-07T00:46:49.673Z,25.94
2018-07-07T00:49:20.318Z,25.96
2018-07-07T00:51:51.053Z,25.85
2018-07-07T00:54:21.778Z,26.01
2018-07-07T00:56:52.605Z,26.06
2018-07-07T00:59:23.325Z,26.00
2018-07-07T01:01:54.276Z,25.85
2018-07-07T01:04:24.721Z,25.80
2018-07-07T01:06:55.756Z,25.83
2018-07-07T01:09:26.435Z,25.85
2018-07-07T01:11:57.218Z,25.91
2018-07-07T01:14:27.857Z,25.89
2018-07-07T01:16:58.525Z,25.86
2018-07-07T01:19:28.670Z,25.85
2018-07-07T01:21:59.351Z,25.93
2018-07-07T01:24:29.894Z,25.88
2018-07-07T01:27:00.622Z,25.89
2018-07-07T01:29:31.256Z,25.87
2018-07-07T01:32:02.254Z,25.73
2018-07-07T01:34:32.951Z,25.73
2018-07-07T01:37:03.874Z,25.69
2018-07-07T01:39:34.152Z,25.74
2018-07-07T01:42:05.215Z,25.75
2018-07-07T01:44:35.965Z,25.76
2018-07-07T01:47:06.601Z,25.76
2018-07-07T01:49:36.614Z,25.68
2018-07-07T01:52:07.686Z,25.56
2018-07-07T01:54:38.355Z,25.54
2018-07-07T01:57:09.049Z,25.24
2018-07-07T01:59:39.773Z,25.10
2018-07-07T02:02:10.450Z,25.17
2018-07-07T02:04:41.090Z,25.03
2018-07-07T02:07:11.794Z,25.02
2018-07-07T02:09:42.510Z,25.08
2018-07-07T02:12:13.225Z,25.02
2018-07-07T02:14:43.924Z,25.13
2018-07-07T02:17:15.566Z,25.10
2018-07-07T02:19:46.038Z,25.13
2018-07-07T02:22:24.962Z,25.19
2018-07-07T02:24:55.557Z,24.67
2018-07-07T02:27:26.265Z,24.92
2018-07-07T02:29:56.893Z,24.99
2018-07-07T02:32:27.608Z,25.13
2018-07-07T02:34:58.302Z,25.17
2018-07-07T02:37:29.210Z,25.07
2018-07-07T02:39:59.901Z,25.14
2018-07-07T02:42:30.537Z,24.99
2018-07-07T02:45:00.624Z,24.60
2018-07-07T02:47:31.377Z,24.67
2018-07-07T02:50:02.127Z,24.82
2018-07-07T02:52:32.902Z,24.65
2018-07-07T02:55:03.570Z,24.60
2018-07-07T02:57:34.566Z,24.56
2018-07-07T03:00:05.221Z,24.86
2018-07-07T03:02:35.897Z,24.94
2018-07-07T03:05:06.722Z,24.55
2018-07-07T03:07:37.347Z,24.50
2018-07-07T03:10:08.314Z,24.60
2018-07-07T03:12:39.173Z,24.65
2018-07-07T03:15:09.906Z,24.69
2018-07-07T03:17:40.603Z,24.60
2018-07-07T03:20:11.334Z,24.15
2018-07-07T03:22:42.287Z,24.23
2018-07-07T03:25:13.053Z,24.27
2018-07-07T03:27:44.239Z,24.60
2018-07-07T03:30:14.825Z,24.91
2018-07-07T03:32:45.525Z,25.14
2018-07-07T03:35:16.052Z,25.41
2018-07-07T03:37:46.940Z,25.64
2018-07-07T03:40:17.133Z,25.70
2018-07-07T03:42:48.037Z,25.92
2018-07-07T03:45:18.742Z,26.04
2018-07-07T03:47:49.485Z,26.14
2018-07-07T03:50:20.045Z,26.18
2018-07-07T03:52:50.825Z,26.29
2018-07-07T03:55:21.570Z,26.37
2018-07-07T03:57:52.453Z,26.33
2018-07-07T04:00:23.118Z,26.67
2018-07-07T04:02:54.058Z,26.52
2018-07-07T04:05:24.156Z,26.72
2018-07-07T04:07:54.750Z,26.61
2018-07-07T04:10:25.553Z,26.63
2018-07-07T04:12:55.980Z,26.30
2018-07-07T04:15:26.679Z,26.65
2018-07-07T04:17:57.305Z,26.68
2018-07-07T04:20:27.983Z,26.38
2018-07-07T04:22:58.730Z,26.70
2018-07-07T04:25:29.481Z,26.94
2018-07-07T04:28:00.333Z,27.12
2018-07-07T04:30:30.917Z,27.13
2018-07-07T04:33:01.626Z,27.19
2018-07-07T04:35:31.628Z,27.78
2018-07-07T04:38:02.697Z,27.70
2018-07-07T04:40:32.789Z,28.39
2018-07-07T04:43:03.690Z,27.93
2018-07-07T04:45:34.459Z,28.33
2018-07-07T04:48:05.033Z,28.33
2018-07-07T04:50:35.546Z,28.97
2018-07-07T04:53:06.008Z,29.02
2018-07-07T04:55:36.577Z,28.72
2018-07-07T04:58:13.880Z,28.22
2018-07-07T05:00:44.558Z,28.54
2018-07-07T05:03:15.576Z,28.34
2018-07-07T05:05:45.773Z,27.85
2018-07-07T05:08:16.509Z,28.03
2018-07-07T05:10:47.204Z,27.80
2018-07-07T05:13:18.181Z,28.30
2018-07-07T05:15:48.880Z,27.89
2018-07-07T05:18:19.613Z,27.82
2018-07-07T05:20:50.297Z,27.95
2018-07-07T05:23:21.258Z,28.21
2018-07-07T05:25:51.810Z,28.10
2018-07-07T05:28:22.876Z,28.90
2018-07-07T05:30:53.645Z,30.14
2018-07-07T05:33:24.684Z,30.56
2018-07-07T05:35:55.320Z,30.22
2018-07-07T05:38:25.969Z,30.37
2018-07-07T05:40:56.698Z,30.08
2018-07-07T05:43:27.490Z,29.98
2018-07-07T05:45:57.492Z,29.63
2018-07-07T05:48:28.361Z,29.44
2018-07-07T05:50:58.554Z,29.31
2018-07-07T05:53:29.517Z,29.55
2018-07-07T05:55:59.664Z,29.35
2018-07-07T05:58:30.338Z,30.03
2018-07-07T06:01:00.909Z,30.23
2018-07-07T06:03:31.702Z,29.86
2018-07-07T06:06:02.233Z,29.76
2018-07-07T06:08:32.961Z,30.37
2018-07-07T06:11:03.933Z,30.81
2018-07-07T06:13:34.007Z,31.02
2018-07-07T06:16:04.741Z,30.62
2018-07-07T06:18:35.450Z,31.17
2018-07-07T06:21:06.270Z,31.30
2018-07-07T06:23:36.881Z,31.19
2018-07-07T06:26:07.089Z,31.09
2018-07-07T06:28:37.934Z,31.39
2018-07-07T06:31:08.865Z,31.59
2018-07-07T06:33:40.077Z,31.69
2018-07-07T06:36:10.713Z,31.22
2018-07-07T06:38:41.403Z,31.51
2018-07-07T06:41:12.182Z,31.07
2018-07-07T06:43:43.166Z,31.11
2018-07-07T06:46:14.493Z,31.07
2018-07-07T06:48:44.862Z,31.02
2018-07-07T06:51:15.465Z,31.80
2018-07-07T06:53:46.407Z,32.77
2018-07-07T06:56:16.465Z,33.12
2018-07-07T06:58:46.965Z,32.29
2018-07-07T07:01:17.642Z,33.26
2018-07-07T07:03:48.259Z,32.90
2018-07-07T07:06:18.868Z,32.30
2018-07-07T07:08:49.554Z,32.27
2018-07-07T07:11:20.474Z,32.62
2018-07-07T07:13:50.602Z,32.28
2018-07-07T07:16:21.741Z,32.32
2018-07-07T07:18:52.010Z,33.78
2018-07-07T07:21:22.697Z,33.15
2018-07-07T07:23:53.543Z,33.39
2018-07-07T07:26:24.590Z,31.95
2018-07-07T07:28:55.934Z,32.67
2018-07-07T07:31:26.674Z,32.31
2018-07-07T07:33:57.181Z,32.57
2018-07-07T07:36:47.477Z,32.56
2018-07-07T07:39:17.801Z,31.62
2018-07-07T07:41:48.079Z,32.04
2018-07-07T07:44:18.619Z,31.46
2018-07-07T07:46:49.350Z,31.12
2018-07-07T07:49:19.990Z,32.24
2018-07-07T07:51:50.804Z,33.20
2018-07-07T07:54:21.444Z,33.09
2018-07-07T07:56:52.133Z,32.78
2018-07-07T07:59:22.870Z,32.95
2018-07-07T08:01:53.634Z,33.17
2018-07-07T08:04:24.122Z,33.70
2018-07-07T08:06:54.364Z,33.55
2018-07-07T08:09:25.010Z,34.11
2018-07-07T08:11:55.705Z,33.45
2018-07-07T08:14:26.590Z,33.36
2018-07-07T08:16:57.361Z,33.42
2018-07-07T08:19:28.579Z,33.26
2018-07-07T08:21:59.617Z,33.01
2018-07-07T08:24:30.298Z,32.08
2018-07-07T08:27:01.310Z,31.68
2018-07-07T08:29:32.074Z,32.80
2018-07-07T08:32:02.893Z,34.09
2018-07-07T08:34:33.037Z,33.98
2018-07-07T08:37:03.309Z,35.19
2018-07-07T08:39:34.135Z,34.67
2018-07-07T08:42:04.993Z,34.44
2018-07-07T08:44:35.220Z,34.33
2018-07-07T08:47:05.937Z,34.05
2018-07-07T08:49:36.477Z,34.41
2018-07-07T08:52:07.254Z,34.77
2018-07-07T08:54:37.897Z,34.88
2018-07-07T08:57:08.601Z,34.34
2018-07-07T08:59:39.285Z,35.78
2018-07-07T09:02:10.168Z,34.91
2018-07-07T09:04:40.417Z,34.44
2018-07-07T09:07:11.162Z,34.77
2018-07-07T09:09:41.829Z,34.51
2018-07-07T09:12:12.642Z,34.32
2018-07-07T09:14:43.486Z,34.22
2018-07-07T09:17:14.082Z,35.46
2018-07-07T09:19:44.753Z,35.15
2018-07-07T09:22:15.620Z,34.44
2018-07-07T09:24:45.884Z,35.16
2018-07-07T09:27:16.698Z,35.92
2018-07-07T09:29:47.313Z,35.11
2018-07-07T09:32:18.373Z,34.95
2018-07-07T09:34:49.144Z,35.45
2018-07-07T09:37:20.038Z,34.75
2018-07-07T09:39:50.816Z,35.11
2018-07-07T09:42:22.001Z,35.80
2018-07-07T09:44:52.019Z,36.61
2018-07-07T09:47:22.821Z,35.08
2018-07-07T09:49:53.547Z,33.97
2018-07-07T09:52:24.056Z,34.49
2018-07-07T09:54:54.626Z,34.64
2018-07-07T09:57:25.481Z,35.37
2018-07-07T09:59:56.202Z,36.24
2018-07-07T10:02:27.125Z,35.88
2018-07-07T10:04:57.753Z,35.68
2018-07-07T10:07:28.813Z,35.88
2018-07-07T10:09:59.509Z,36.05
2018-07-07T10:12:30.149Z,35.46
2018-07-07T10:15:00.885Z,35.56
2018-07-07T10:17:31.677Z,35.45
2018-07-07T10:20:02.377Z,34.59
2018-07-07T10:22:33.327Z,34.58
2018-07-07T10:25:04.061Z,33.37
2018-07-07T10:27:34.108Z,33.16
2018-07-07T10:30:04.738Z,33.66
2018-07-07T10:32:35.513Z,33.87
2018-07-07T10:35:06.132Z,34.10
2018-07-07T10:37:37.022Z,35.65
2018-07-07T10:40:07.627Z,35.92
2018-07-07T10:42:38.504Z,35.85
2018-07-07T10:45:09.173Z,35.87
2018-07-07T10:47:39.866Z,35.53
2018-07-07T10:50:10.537Z,35.24
2018-07-07T10:52:41.382Z,34.80
2018-07-07T10:55:11.929Z,35.03
2018-07-07T10:57:42.895Z,34.29
2018-07-07T11:00:13.611Z,34.06
2018-07-07T11:02:44.197Z,33.87
2018-07-07T11:05:14.830Z,33.79
2018-07-07T11:07:45.501Z,34.43
2018-07-07T11:10:15.485Z,33.93
2018-07-07T11:12:46.003Z,34.03
2018-07-07T11:15:16.614Z,34.06
2018-07-07T11:17:47.526Z,33.61
2018-07-07T11:20:18.212Z,34.26
2018-07-07T11:22:49.040Z,33.85
2018-07-07T11:25:19.542Z,34.35
2018-07-07T11:27:50.249Z,34.30
2018-07-07T11:30:20.393Z,33.97
2018-07-07T11:32:51.223Z,33.72
2018-07-07T11:35:21.982Z,34.10
2018-07-07T11:37:53.030Z,34.57
2018-07-07T11:40:23.898Z,34.65
2018-07-07T11:42:54.705Z,35.22
2018-07-07T11:45:25.377Z,35.30
2018-07-07T11:47:56.149Z,35.64
2018-07-07T11:50:26.256Z,34.88
2018-07-07T11:52:56.398Z,35.02
2018-07-07T11:55:26.585Z,34.80
2018-07-07T11:57:57.122Z,33.26
2018-07-07T12:00:27.803Z,31.48
2018-07-07T12:02:58.825Z,30.33
2018-07-07T12:05:29.422Z,30.42
2018-07-07T12:08:13.672Z,30.26
2018-07-07T12:10:30.954Z,30.28
2018-07-07T12:13:01.801Z,29.41
2018-07-07T12:15:32.431Z,29.34
2018-07-07T12:18:03.273Z,29.60
2018-07-07T12:20:33.946Z,29.37
2018-07-07T12:23:04.878Z,29.68
2018-07-07T12:25:35.549Z,29.55
2018-07-07T12:28:06.205Z,29.36
2018-07-07T12:30:36.954Z,28.95
2018-07-07T12:33:07.666Z,28.12
2018-07-07T12:35:38.358Z,27.95
2018-07-07T12:38:09.139Z,27.68
2018-07-07T12:40:39.852Z,27.03
2018-07-07T12:43:10.633Z,27.56
2018-07-07T12:45:41.416Z,27.46
2018-07-07T12:48:12.264Z,27.66
2018-07-07T12:50:42.948Z,27.78
2018-07-07T12:53:13.729Z,27.58
2018-07-07T12:55:44.330Z,27.52
2018-07-07T12:58:15.018Z,27.54
2018-07-07T13:00:45.721Z,27.18
2018-07-07T13:03:16.417Z,27.66
2018-07-07T13:05:46.461Z,27.44
2018-07-07T13:08:17.050Z,26.55
2018-07-07T13:10:47.722Z,25.09
2018-07-07T13:13:18.497Z,25.03
2018-07-07T13:15:49.046Z,25.01
2018-07-07T13:18:19.833Z,25.30
2018-07-07T13:20:50.598Z,24.91
2018-07-07T13:23:21.269Z,24.43
2018-07-07T13:25:51.517Z,24.49
2018-07-07T13:28:22.372Z,24.28
2018-07-07T13:30:53.110Z,24.51
2018-07-07T13:33:24.037Z,24.49
2018-07-07T13:35:55.309Z,24.64
2018-07-07T13:38:26.242Z,24.52
2018-07-07T13:40:56.876Z,24.26
2018-07-07T13:43:27.695Z,24.18
2018-07-07T13:45:58.311Z,23.91
2018-07-07T13:48:29.097Z,24.13
2018-07-07T13:50:59.855Z,24.05
2018-07-07T13:53:30.589Z,23.83
2018-07-07T13:56:01.490Z,23.76
2018-07-07T13:58:32.317Z,23.90
2018-07-07T14:01:02.862Z,23.80
2018-07-07T14:03:34.900Z,23.73
2018-07-07T14:06:05.618Z,23.65
2018-07-07T14:08:36.719Z,23.89
2018-07-07T14:11:07.965Z,24.17
2018-07-07T14:13:38.321Z,24.34
2018-07-07T14:16:09.126Z,24.21
2018-07-07T14:18:39.911Z,24.24
2018-07-07T14:21:10.617Z,24.35
2018-07-07T14:23:41.653Z,24.58
2018-07-07T14:26:12.241Z,24.67
2018-07-07T14:28:42.989Z,24.98
2018-07-07T14:31:12.982Z,25.01
2018-07-07T14:33:43.788Z,25.23
2018-07-07T14:36:14.433Z,25.49
2018-07-07T14:38:45.121Z,25.16
2018-07-07T14:41:21.200Z,25.17
2018-07-07T14:43:58.769Z,25.25
2018-07-07T14:46:29.417Z,25.19
2018-07-07T14:49:00.324Z,25.46
2018-07-07T14:51:30.578Z,25.31
2018-07-07T14:54:01.578Z,25.64
2018-07-07T14:56:32.279Z,25.63
2018-07-07T14:59:03.258Z,25.51
2018-07-07T15:01:33.951Z,25.44
2018-07-07T15:04:04.809Z,25.47
2018-07-07T15:06:35.569Z,25.77
2018-07-07T15:09:06.565Z,25.49
2018-07-07T15:11:37.192Z,25.56
2018-07-07T15:14:08.270Z,25.86
2018-07-07T15:16:38.940Z,25.78
2018-07-07T15:19:09.573Z,25.82
2018-07-07T15:21:40.234Z,25.83
2018-07-07T15:24:11.067Z,25.68
2018-07-07T15:26:41.695Z,25.71
2018-07-07T15:29:12.473Z,25.53
2018-07-07T15:31:42.754Z,25.55
2018-07-07T15:34:13.905Z,25.81
2018-07-07T15:36:44.533Z,25.61
2018-07-07T15:39:15.306Z,25.84
2018-07-07T15:41:46.334Z,25.95
2018-07-07T15:44:16.722Z,25.86
2018-07-07T15:46:47.414Z,26.21
2018-07-07T15:49:18.253Z,25.75
2018-07-07T15:51:48.959Z,25.76
2018-07-07T15:54:20.091Z,25.75
2018-07-07T15:56:50.794Z,26.02
2018-07-07T15:59:21.650Z,25.88
2018-07-07T16:01:52.210Z,25.93
2018-07-07T16:04:22.597Z,25.63
2018-07-07T16:06:53.249Z,25.86
2018-07-07T16:09:24.193Z,26.05
2018-07-07T16:11:54.899Z,26.02
2018-07-07T16:14:25.741Z,25.80
2018-07-07T16:16:56.478Z,26.04
2018-07-07T16:19:27.289Z,26.10
2018-07-07T16:21:58.014Z,25.99
2018-07-07T16:24:28.782Z,26.01
2018-07-07T16:26:59.558Z,25.94
2018-07-07T16:29:30.450Z,26.05
2018-07-07T16:32:01.158Z,26.33
2018-07-07T16:34:32.192Z,26.03
2018-07-07T16:37:02.891Z,26.14
2018-07-07T16:39:33.317Z,26.11
2018-07-07T16:42:03.938Z,26.16
2018-07-07T16:44:34.921Z,25.82
2018-07-07T16:47:05.484Z,25.91
2018-07-07T16:49:36.317Z,26.02
2018-07-07T16:52:07.253Z,25.82
2018-07-07T16:54:38.754Z,25.90
2018-07-07T16:57:09.844Z,26.10
2018-07-07T16:59:41.017Z,25.99
2018-07-07T17:02:11.801Z,25.89
2018-07-07T17:04:42.741Z,26.10
2018-07-07T17:07:13.530Z,25.90
2018-07-07T17:09:43.960Z,25.79
2018-07-07T17:12:14.841Z,25.92
2018-07-07T17:14:45.649Z,25.92
2018-07-07T17:17:16.562Z,25.81
2018-07-07T17:19:47.123Z,25.85
2018-07-07T17:22:17.726Z,25.71
2018-07-07T17:24:48.373Z,25.94
2018-07-07T17:27:18.540Z,26.08
2018-07-07T17:29:49.510Z,25.81
2018-07-07T17:32:19.715Z,26.09
2018-07-07T17:34:50.476Z,26.23
2018-07-07T17:37:21.514Z,26.07
2018-07-07T17:39:51.873Z,26.12
2018-07-07T17:42:22.697Z,25.90
2018-07-07T17:44:54.026Z,25.83
2018-07-07T17:47:24.269Z,25.83
2018-07-07T17:49:54.907Z,25.85
2018-07-07T17:52:25.470Z,25.91
2018-07-07T17:54:56.361Z,25.87
2018-07-07T17:57:27.186Z,25.56
2018-07-07T17:59:58.277Z,25.74
2018-07-07T18:02:28.925Z,25.95
2018-07-07T18:04:59.913Z,25.95
2018-07-07T18:07:30.204Z,26.02
2018-07-07T18:10:01.046Z,26.15
2018-07-07T18:12:31.357Z,26.12
2018-07-07T18:15:02.270Z,26.05
2018-07-07T18:17:32.974Z,25.88
2018-07-07T18:20:04.030Z,25.97
2018-07-07T18:22:34.782Z,25.94
2018-07-07T18:25:05.550Z,25.84
2018-07-07T18:27:35.713Z,26.02
2018-07-07T18:30:06.669Z,26.06
2018-07-07T18:32:37.358Z,26.10
2018-07-07T18:35:08.225Z,26.13
2018-07-07T18:37:38.998Z,26.15
2018-07-07T18:40:09.329Z,26.15
2018-07-07T18:42:40.030Z,25.99
2018-07-07T18:45:10.763Z,25.99
2018-07-07T18:47:41.317Z,26.06
2018-07-07T18:50:12.036Z,25.92
2018-07-07T18:52:42.809Z,25.78
2018-07-07T18:55:13.065Z,25.54
2018-07-07T18:57:43.710Z,25.39
2018-07-07T19:00:14.350Z,25.45
2018-07-07T19:02:44.898Z,25.47
2018-07-07T19:05:15.657Z,25.38
2018-07-07T19:07:46.773Z,25.44
2018-07-07T19:10:17.438Z,25.40
2018-07-07T19:12:48.153Z,25.58
2018-07-07T19:15:22.076Z,25.60
2018-07-07T19:17:53.313Z,25.48
2018-07-07T19:20:28.390Z,25.49
2018-07-07T19:23:03.607Z,25.09
2018-07-07T19:28:20.889Z,25.19
2018-07-07T19:30:51.526Z,25.31
2018-07-07T19:33:27.129Z,25.37
2018-07-07T19:36:02.626Z,25.44
2018-07-07T19:38:33.517Z,25.50
2018-07-07T19:41:04.281Z,25.45
2018-07-07T19:43:35.190Z,25.44
2018-07-07T19:46:05.950Z,25.39
2018-07-07T19:48:36.541Z,25.37
2018-07-07T19:51:07.238Z,25.59
2018-07-07T19:53:38.033Z,25.62
2018-07-07T19:56:08.685Z,25.74
2018-07-07T19:58:39.673Z,25.89
2018-07-07T20:01:10.451Z,25.76
2018-07-07T20:03:41.429Z,25.79
2018-07-07T20:06:12.222Z,25.69
2018-07-07T20:08:43.070Z,25.66
2018-07-07T20:11:13.730Z,25.77
2018-07-07T20:13:44.475Z,25.65
2018-07-07T20:16:17.460Z,25.84
2018-07-07T20:19:13.239Z,25.78
2018-07-07T20:21:51.429Z,25.67
2018-07-07T20:24:23.805Z,25.55
2018-07-07T20:26:59.581Z,25.69
2018-07-07T20:29:30.561Z,25.52
2018-07-07T20:32:01.028Z,25.59
2018-07-07T20:34:32.379Z,25.54
2018-07-07T20:37:03.110Z,25.60
2018-07-07T20:39:33.813Z,25.43
2018-07-07T20:42:05.738Z,25.57
2018-07-07T20:44:36.546Z,25.60
2018-07-07T20:47:07.505Z,25.70
2018-07-07T20:49:38.369Z,25.63
2018-07-07T20:52:08.621Z,25.48
2018-07-07T20:54:39.325Z,25.39
2018-07-07T20:57:10.008Z,25.43
2018-07-07T20:59:40.911Z,25.33
2018-07-07T21:02:11.510Z,25.51
2018-07-07T21:04:42.184Z,25.43
2018-07-07T21:07:12.853Z,25.50
2018-07-07T21:09:43.506Z,25.62
2018-07-07T21:12:13.709Z,25.55
2018-07-07T21:14:44.911Z,25.63
2018-07-07T21:17:15.635Z,25.50
2018-07-07T21:19:46.453Z,25.46
2018-07-07T21:22:17.138Z,25.28
2018-07-07T21:24:47.876Z,25.45
2018-07-07T21:27:18.369Z,25.57
2018-07-07T21:29:49.097Z,25.45
2018-07-07T21:32:19.821Z,25.53
2018-07-07T21:34:50.654Z,25.54
2018-07-07T21:37:20.993Z,25.63
2018-07-07T21:39:51.777Z,25.40
2018-07-07T21:42:22.329Z,25.38
2018-07-07T21:44:53.112Z,25.42
2018-07-07T21:47:23.581Z,25.54
2018-07-07T21:49:54.393Z,25.46
2018-07-07T21:52:24.861Z,25.55
2018-07-07T21:54:55.718Z,25.52
2018-07-07T21:57:31.314Z,25.51
2018-07-07T22:00:02.169Z,25.45
2018-07-07T22:02:37.360Z,25.47
2018-07-07T22:05:13.222Z,25.42
2018-07-07T22:07:43.822Z,25.46
2018-07-07T22:10:14.494Z,25.43
2018-07-07T22:12:45.091Z,25.47
2018-07-07T22:15:15.773Z,25.72
2018-07-07T22:17:46.250Z,25.58
2018-07-07T22:20:37.702Z,25.65
2018-07-07T22:23:08.466Z,25.68
2018-07-07T22:25:38.565Z,25.90
2018-07-07T22:28:09.335Z,25.90
2018-07-07T22:30:40.102Z,25.95
2018-07-07T22:33:15.713Z,26.07
2018-07-07T22:35:51.342Z,26.14
2018-07-07T22:38:26.827Z,25.93
2018-07-07T22:40:57.785Z,25.92
2018-07-07T22:43:28.769Z,25.97
2018-07-07T22:46:01.151Z,26.03
2018-07-07T22:48:31.260Z,26.08
2018-07-07T22:51:02.013Z,26.06
2018-07-07T22:53:32.922Z,26.01
2018-07-07T22:56:03.532Z,26.04
2018-07-07T22:58:34.354Z,26.01
2018-07-07T23:01:04.932Z,25.94
2018-07-07T23:03:35.265Z,25.91
2018-07-07T23:06:05.914Z,25.84
2018-07-07T23:08:36.702Z,25.80
2018-07-07T23:11:07.574Z,25.76
2018-07-07T23:13:37.776Z,25.75
2018-07-07T23:16:08.054Z,25.73
2018-07-07T23:18:38.941Z,25.66
2018-07-07T23:21:09.201Z,25.67
2018-07-07T23:23:39.941Z,25.50
2018-07-07T23:26:10.629Z,25.40
2018-07-07T23:28:41.782Z,25.34
2018-07-07T23:31:12.374Z,25.36
2018-07-07T23:33:43.018Z,25.30
2018-07-07T23:36:13.665Z,25.29
2018-07-07T23:38:44.901Z,25.28
2018-07-07T23:41:15.638Z,25.29
2018-07-07T23:43:46.576Z,25.32
2018-07-07T23:46:17.181Z,25.33
2018-07-07T23:48:48.115Z,25.35
2018-07-07T23:51:18.813Z,25.32
2018-07-07T23:53:49.722Z,25.21
2018-07-07T23:56:19.949Z,25.22
2018-07-07T23:58:50.021Z,25.30
